Time;durP1;ratioP1;P1;durP2;ratioP2;P2;SDS_P1;SDS_P2;PMS_P1;PMS_P2;Temp;Humidity;BMP_temperature;BMP_pressure;BME280_temperature;BME280_humidity;BME280_pressure;Samples;Min_cycle;Max_cycle;Signal;HPM_P1;HPM_P2
2022/09/24 00:00:34;;;;;;;;;;;;;;;;;;5055230;28;19975;-51
2022/09/24 00:03:01;;;;;;;;;;;;;;;;;;5058641;28;19971;-51
2022/09/24 00:05:27;;;;;;;;;;;;;;;;;;5055383;28;20122;-53
2022/09/24 00:07:54;;;;;;;;;;;;;;;;;;5056127;28;19925;-51
2022/09/24 00:10:22;;;;;;;;;;;;;;;;;;5054726;28;19979;-53
2022/09/24 00:12:48;;;;;;;;;;;;;;;;;;5063160;28;19971;-51
2022/09/24 00:15:15;;;;;;;;;;;;;;;;;;5055285;28;20337;-53
2022/09/24 00:17:42;;;;;;;;;;;;;;;;;;5086736;28;20381;-52
2022/09/24 00:20:09;;;;;;;;;;;;;;;;;;5094918;28;20493;-51
2022/09/24 00:22:36;;;;;;;;;;;;;;;;;;5066387;28;19979;-53
2022/09/24 00:27:46;;;;;;;;;;;;;;;;;;5085943;28;20351;-50
2022/09/24 00:30:13;;;;;;;;;;;;;;;;;;5094715;28;19924;-52
2022/09/24 00:32:40;;;;;;;;;;;;;;;;;;5085199;28;19999;-52
2022/09/24 00:35:08;;;;;;;;;;;;;;;;;;5094887;28;19924;-51
2022/09/24 00:37:34;;;;;;;;;;;;;;;;;;5068646;28;19925;-53
2022/09/24 00:40:01;;;;;;;;;;;;;;;;;;5053427;28;19983;-50
2022/09/24 00:42:31;;;;;;;;;;;;;;;;;;5073805;28;19982;-50
2022/09/24 00:44:58;;;;;;;;;;;;;;;;;;5094584;28;19978;-51
2022/09/24 00:47:32;;;;;;;;;;;;;;;;;;5074147;28;19994;-50
2022/09/24 00:50:05;;;;;;;;;;;;;;;;;;5054134;28;19925;-54
2022/09/24 00:52:33;;;;;;;;;;;;;;;;;;5071847;28;19944;-49
2022/09/24 00:55:00;;;;;;;;;;;;;;;;;;5094571;28;20315;-54
2022/09/24 00:57:27;;;;;;;;;;;;;;;;;;5076103;28;20421;-50
2022/09/24 00:59:54;;;;;;;;;;;;;;;;;;5053662;28;19931;-50
2022/09/24 01:02:20;;;;;;;;;;;;;;;;;;5088249;28;19924;-50
2022/09/24 01:04:47;;;;;;;;;;;;;;;;;;5094132;28;19971;-53
2022/09/24 01:07:14;;;;;;;;;;;;;;;;;;5056060;28;19925;-50
2022/09/24 01:09:42;;;;;;;;;;;;;;;;;;5053794;28;19975;-52
2022/09/24 01:12:13;;;;;;;;;;;;;;;;;;5088134;28;20350;-53
2022/09/24 01:14:53;;;;;;;;;;;;;;;;;;5054057;28;20377;-53
2022/09/24 01:17:25;;;;;;;;;;;;;;;;;;5054128;28;19932;-51
2022/09/24 01:20:06;;;;;;;;;;;;;;;;;;5053542;28;20559;-53
2022/09/24 01:22:42;;;;;;;;;;;;;;;;;;5050706;28;19947;-53
2022/09/24 01:25:16;;;;;;;;;;;;;;;;;;5081402;28;20311;-51
2022/09/24 01:27:53;;;;;;;;;;;;;;;;;;5053507;28;19924;-52
2022/09/24 01:30:21;;;;;;;;;;;;;;;;;;5053988;28;20429;-51
2022/09/24 01:32:52;;;;;;;;;;;;;;;;;;5055819;28;19925;-51
2022/09/24 01:35:20;;;;;;;;;;;;;;;;;;5053295;28;19972;-54
2022/09/24 01:37:49;;;;;;;;;;;;;;;;;;5073183;28;20289;-50
2022/09/24 01:40:17;;;;;;;;;;;;;;;;;;5072644;28;19932;-51
2022/09/24 01:42:45;;;;;;;;;;;;;;;;;;5091306;28;19924;-51
2022/09/24 01:45:12;;;;;;;;;;;;;;;;;;5056484;28;20393;-53
2022/09/24 01:47:41;;;;;;;;;;;;;;;;;;5088558;28;19931;-53
2022/09/24 01:50:08;;;;;;;;;;;;;;;;;;5092812;28;20344;-52
2022/09/24 01:52:38;;;;;;;;;;;;;;;;;;5058074;28;20007;-52
2022/09/24 01:55:06;;;;;;;;;;;;;;;;;;5061885;28;19925;-51
2022/09/24 01:57:33;;;;;;;;;;;;;;;;;;5053046;28;19970;-51
2022/09/24 02:00:03;;;;;;;;;;;;;;;;;;5069852;28;19928;-53
2022/09/24 02:02:32;;;;;;;;;;;;;;;;;;5071171;28;19929;-52
2022/09/24 02:05:03;;;;;;;;;;;;;;;;;;5058144;28;20590;-50
2022/09/24 02:07:33;;;;;;;;;;;;;;;;;;5052990;28;20385;-51
2022/09/24 02:09:59;;;;;;;;;;;;;;;;;;5067420;28;19928;-52
2022/09/24 02:12:28;;;;;;;;;;;;;;;;;;5092627;28;19986;-54
2022/09/24 02:14:57;;;;;;;;;;;;;;;;;;5090300;28;19969;-50
2022/09/24 02:17:25;;;;;;;;;;;;;;;;;;5092852;28;20470;-50
2022/09/24 02:19:52;;;;;;;;;;;;;;;;;;5092194;28;20588;-51
2022/09/24 02:22:20;;;;;;;;;;;;;;;;;;5092859;28;19932;-53
2022/09/24 02:24:48;;;;;;;;;;;;;;;;;;5092721;28;19971;-52
2022/09/24 02:27:14;;;;;;;;;;;;;;;;;;5093195;28;19930;-54
2022/09/24 02:29:41;;;;;;;;;;;;;;;;;;5093049;28;20377;-54
2022/09/24 02:32:09;;;;;;;;;;;;;;;;;;5093500;28;19972;-52
2022/09/24 02:34:37;;;;;;;;;;;;;;;;;;5092976;28;20383;-55
2022/09/24 02:37:05;;;;;;;;;;;;;;;;;;5093320;28;20626;-54
2022/09/24 02:39:33;;;;;;;;;;;;;;;;;;5092535;28;19924;-53
2022/09/24 02:42:00;;;;;;;;;;;;;;;;;;5092805;28;19973;-52
2022/09/24 02:44:27;;;;;;;;;;;;;;;;;;5092637;28;19930;-52
2022/09/24 02:46:54;;;;;;;;;;;;;;;;;;5092955;28;20407;-55
2022/09/24 02:49:21;;;;;;;;;;;;;;;;;;5093084;28;19928;-50
2022/09/24 02:51:47;;;;;;;;;;;;;;;;;;5092721;28;19928;-55
2022/09/24 02:54:14;;;;;;;;;;;;;;;;;;5070585;28;19924;-55
2022/09/24 02:56:41;;;;;;;;;;;;;;;;;;5052562;28;19968;-55
2022/09/24 02:59:08;;;;;;;;;;;;;;;;;;5052051;28;20354;-55
2022/09/24 03:01:35;;;;;;;;;;;;;;;;;;5052759;28;20585;-53
2022/09/24 03:04:01;;;;;;;;;;;;;;;;;;5051827;28;19954;-54
2022/09/24 03:06:28;;;;;;;;;;;;;;;;;;5052377;28;19979;-54
2022/09/24 03:08:55;;;;;;;;;;;;;;;;;;5052238;28;19971;-53
2022/09/24 03:11:22;;;;;;;;;;;;;;;;;;5052418;28;19971;-50
2022/09/24 03:13:50;;;;;;;;;;;;;;;;;;5052066;28;20394;-52
2022/09/24 03:16:17;;;;;;;;;;;;;;;;;;5052206;28;20043;-52
2022/09/24 03:18:44;;;;;;;;;;;;;;;;;;5052032;28;20397;-52
2022/09/24 03:21:11;;;;;;;;;;;;;;;;;;5052067;28;20019;-54
2022/09/24 03:23:38;;;;;;;;;;;;;;;;;;5057034;28;19931;-53
2022/09/24 03:26:04;;;;;;;;;;;;;;;;;;5092336;28;19924;-52
2022/09/24 03:28:31;;;;;;;;;;;;;;;;;;5092286;28;20016;-53
2022/09/24 03:31:01;;;;;;;;;;;;;;;;;;5092378;28;19970;-55
2022/09/24 03:33:28;;;;;;;;;;;;;;;;;;5092107;28;20395;-51
2022/09/24 03:35:55;;;;;;;;;;;;;;;;;;5092198;28;19975;-52
2022/09/24 03:38:22;;;;;;;;;;;;;;;;;;5092160;28;20045;-52
2022/09/24 03:40:48;;;;;;;;;;;;;;;;;;5051834;28;20583;-53
2022/09/24 03:43:15;;;;;;;;;;;;;;;;;;5051847;28;19924;-57
2022/09/24 03:45:41;;;;;;;;;;;;;;;;;;5052075;28;20008;-55
2022/09/24 03:48:09;;;;;;;;;;;;;;;;;;5051929;28;19972;-52
2022/09/24 03:50:35;;;;;;;;;;;;;;;;;;5051899;28;20348;-55
2022/09/24 03:53:02;;;;;;;;;;;;;;;;;;5051961;28;19974;-56
2022/09/24 03:55:29;;;;;;;;;;;;;;;;;;5057406;28;20584;-55
2022/09/24 03:57:55;;;;;;;;;;;;;;;;;;5091972;28;19978;-51
2022/09/24 04:00:22;;;;;;;;;;;;;;;;;;5091701;28;19925;-52
2022/09/24 04:02:49;;;;;;;;;;;;;;;;;;5091856;28;19924;-56
2022/09/24 04:05:17;;;;;;;;;;;;;;;;;;5091750;28;19990;-54
2022/09/24 04:07:43;;;;;;;;;;;;;;;;;;5092023;28;19969;-53
2022/09/24 04:10:10;;;;;;;;;;;;;;;;;;5091773;28;19924;-55
2022/09/24 04:12:36;;;;;;;;;;;;;;;;;;5091863;28;19924;-55
2022/09/24 04:15:06;;;;;;;;;;;;;;;;;;5092450;28;19967;-52
2022/09/24 04:17:32;;;;;;;;;;;;;;;;;;5095442;28;19924;-52
2022/09/24 04:19:59;;;;;;;;;;;;;;;;;;5095139;28;20015;-51
2022/09/24 04:22:28;;;;;;;;;;;;;;;;;;5095431;28;19927;-52
2022/09/24 04:24:54;;;;;;;;;;;;;;;;;;5095198;28;19925;-53
2022/09/24 04:27:21;;;;;;;;;;;;;;;;;;5095142;28;19928;-52
2022/09/24 04:29:48;;;;;;;;;;;;;;;;;;5095164;28;20376;-56
2022/09/24 04:32:14;;;;;;;;;;;;;;;;;;5095290;28;19962;-53
2022/09/24 04:34:41;;;;;;;;;;;;;;;;;;5094843;28;19963;-52
2022/09/24 04:37:08;;;;;;;;;;;;;;;;;;5094340;28;19924;-54
2022/09/24 04:39:36;;;;;;;;;;;;;;;;;;5094513;28;19928;-51
2022/09/24 04:42:03;;;;;;;;;;;;;;;;;;5094629;28;19989;-54
2022/09/24 04:44:29;;;;;;;;;;;;;;;;;;5094100;28;20023;-52
2022/09/24 04:47:02;;;;;;;;;;;;;;;;;;5094775;28;19970;-55
2022/09/24 04:49:28;;;;;;;;;;;;;;;;;;5094596;28;19924;-52
2022/09/24 04:51:57;;;;;;;;;;;;;;;;;;5094210;28;19963;-55
2022/09/24 04:54:23;;;;;;;;;;;;;;;;;;5094420;28;19924;-56
2022/09/24 04:56:51;;;;;;;;;;;;;;;;;;5094400;28;20343;-52
2022/09/24 04:59:18;;;;;;;;;;;;;;;;;;5094260;28;19963;-53
2022/09/24 05:01:46;;;;;;;;;;;;;;;;;;5094420;28;19924;-53
2022/09/24 05:04:12;;;;;;;;;;;;;;;;;;5114804;22;20037;-74
2022/09/24 05:06:38;;;;;;;;;;;;;;;;;;5112881;28;19930;-76
2022/09/24 05:09:05;;;;;;;;;;;;;;;;;;5114721;28;19924;-75
2022/09/24 05:11:33;;;;;;;;;;;;;;;;;;5113973;28;19927;-75
2022/09/24 05:14:01;;;;;;;;;;;;;;;;;;5114882;28;20111;-75
2022/09/24 05:16:27;;;;;;;;;;;;;;;;;;5115608;28;19934;-75
2022/09/24 05:18:57;;;;;;;;;;;;;;;;;;5114650;28;19930;-76
2022/09/24 05:21:23;;;;;;;;;;;;;;;;;;5115327;28;20381;-74
2022/09/24 05:23:50;;;;;;;;;;;;;;;;;;5114002;28;19946;-74
2022/09/24 05:29:04;;;;;;;;;;;;;;;;;;5088101;28;19930;-75
2022/09/24 05:34:13;;;;;;;;;;;;;;;;;;5114816;28;20389;-76
2022/09/24 05:36:40;;;;;;;;;;;;;;;;;;5115930;28;19923;-75
2022/09/24 05:39:08;;;;;;;;;;;;;;;;;;5115293;28;20016;-75
2022/09/24 05:41:35;;;;;;;;;;;;;;;;;;5112806;28;19976;-76
2022/09/24 05:44:02;;;;;;;;;;;;;;;;;;5113419;28;20294;-75
2022/09/24 05:46:29;;;;;;;;;;;;;;;;;;5113569;28;19924;-74
2022/09/24 05:48:56;;;;;;;;;;;;;;;;;;5113517;28;20409;-75
2022/09/24 05:51:22;;;;;;;;;;;;;;;;;;5114038;28;19935;-75
2022/09/24 05:53:49;;;;;;;;;;;;;;;;;;5116150;28;20397;-76
2022/09/24 05:56:16;;;;;;;;;;;;;;;;;;5115979;28;20014;-76
2022/09/24 05:58:48;;;;;;;;;;;;;;;;;;5115862;28;20263;-75
2022/09/24 06:01:14;;;;;;;;;;;;;;;;;;5115201;28;19975;-75
2022/09/24 06:03:42;;;;;;;;;;;;;;;;;;5115431;28;19923;-75
2022/09/24 06:06:09;;;;;;;;;;;;;;;;;;5114677;28;20500;-75
2022/09/24 06:08:35;;;;;;;;;;;;;;;;;;5114891;28;20075;-75
2022/09/24 06:11:04;;;;;;;;;;;;;;;;;;5115086;28;20023;-75
2022/09/24 06:13:35;;;;;;;;;;;;;;;;;;5116078;28;19931;-74
2022/09/24 06:16:02;;;;;;;;;;;;;;;;;;5115892;28;19923;-74
2022/09/24 06:18:30;;;;;;;;;;;;;;;;;;5116819;28;19931;-75
2022/09/24 06:21:03;;;;;;;;;;;;;;;;;;5115189;28;20452;-76
2022/09/24 06:23:30;;;;;;;;;;;;;;;;;;5113643;28;19923;-75
2022/09/24 06:25:57;;;;;;;;;;;;;;;;;;5112907;28;20496;-75
2022/09/24 06:28:24;;;;;;;;;;;;;;;;;;5112571;28;20015;-76
2022/09/24 06:30:50;;;;;;;;;;;;;;;;;;5112640;28;20352;-76
2022/09/24 06:33:18;;;;;;;;;;;;;;;;;;5112387;28;20378;-76
2022/09/24 06:35:45;;;;;;;;;;;;;;;;;;5112698;28;19923;-75
2022/09/24 06:38:14;;;;;;;;;;;;;;;;;;5111052;28;20609;-76
2022/09/24 06:40:41;;;;;;;;;;;;;;;;;;5112073;28;19958;-76
2022/09/24 06:43:09;;;;;;;;;;;;;;;;;;5113228;28;20017;-76
2022/09/24 06:45:35;;;;;;;;;;;;;;;;;;5112667;28;19923;-76
2022/09/24 06:48:03;;;;;;;;;;;;;;;;;;5112742;28;19930;-76
2022/09/24 06:50:30;;;;;;;;;;;;;;;;;;5111853;28;19938;-75
2022/09/24 06:52:57;;;;;;;;;;;;;;;;;;5112240;28;19924;-76
2022/09/24 06:55:25;;;;;;;;;;;;;;;;;;5113049;28;19927;-75
2022/09/24 06:58:01;;;;;;;;;;;;;;;;;;5112620;28;19931;-74
2022/09/24 07:00:27;;;;;;;;;;;;;;;;;;5112613;28;19991;-74
2022/09/24 07:02:53;;;;;;;;;;;;;;;;;;5112008;28;19924;-75
2022/09/24 07:05:20;;;;;;;;;;;;;;;;;;5112253;28;20301;-75
2022/09/24 07:07:46;;;;;;;;;;;;;;;;;;5112739;28;19979;-76
2022/09/24 07:10:13;;;;;;;;;;;;;;;;;;5112350;28;19931;-77
2022/09/24 07:12:42;;;;;;;;;;;;;;;;;;5112192;28;19958;-76
2022/09/24 07:15:09;;;;;;;;;;;;;;;;;;5112490;28;19930;-75
2022/09/24 07:17:35;;;;;;;;;;;;;;;;;;5112288;28;20002;-75
2022/09/24 07:20:02;;;;;;;;;;;;;;;;;;5109657;28;20293;-74
2022/09/24 07:22:28;;;;;;;;;;;;;;;;;;5112111;28;20303;-75
2022/09/24 07:24:55;;;;;;;;;;;;;;;;;;5111946;28;20014;-75
2022/09/24 07:27:21;;;;;;;;;;;;;;;;;;5112337;28;19931;-75
2022/09/24 07:29:49;;;;;;;;;;;;;;;;;;5111684;28;20294;-76
2022/09/24 07:32:16;;;;;;;;;;;;;;;;;;5111932;28;19924;-76
2022/09/24 07:34:42;;;;;;;;;;;;;;;;;;5112139;28;19930;-74
2022/09/24 07:37:09;;;;;;;;;;;;;;;;;;5111977;28;19931;-76
2022/09/24 07:39:35;;;;;;;;;;;;;;;;;;5111783;28;19931;-76
2022/09/24 07:42:02;;;;;;;;;;;;;;;;;;5112283;28;19930;-75
2022/09/24 07:44:29;;;;;;;;;;;;;;;;;;5113652;28;19932;-75
2022/09/24 07:46:57;;;;;;;;;;;;;;;;;;5113584;28;19935;-76
2022/09/24 07:49:23;;;;;;;;;;;;;;;;;;5113651;28;19930;-76
2022/09/24 07:51:50;;;;;;;;;;;;;;;;;;5111313;28;19924;-77
2022/09/24 07:54:16;;;;;;;;;;;;;;;;;;5116877;28;19934;-76
2022/09/24 07:56:43;;;;;;;;;;;;;;;;;;5117548;28;19923;-77
2022/09/24 07:59:10;;;;;;;;;;;;;;;;;;5116275;28;19924;-76
2022/09/24 08:01:38;;;;;;;;;;;;;;;;;;5099303;28;19979;-77
2022/09/24 08:04:06;;;;;;;;;;;;;;;;;;5117298;28;19928;-79
2022/09/24 08:06:34;;;;;;;;;;;;;;;;;;5117136;28;19992;-75
2022/09/24 08:09:00;;;;;;;;;;;;;;;;;;5114675;28;19959;-75
2022/09/24 08:11:27;;;;;;;;;;;;;;;;;;5112478;28;20409;-75
2022/09/24 08:13:55;;;;;;;;;;;;;;;;;;5113346;28;20008;-76
2022/09/24 08:16:21;;;;;;;;;;;;;;;;;;5115733;28;19930;-75
2022/09/24 08:18:47;;;;;;;;;;;;;;;;;;5115793;28;19940;-75
2022/09/24 08:21:16;;;;;;;;;;;;;;;;;;5113790;28;19939;-75
2022/09/24 08:23:42;;;;;;;;;;;;;;;;;;5115546;28;19924;-75
2022/09/24 08:26:09;;;;;;;;;;;;;;;;;;5115028;28;20007;-75
2022/09/24 08:28:36;;;;;;;;;;;;;;;;;;5115079;28;19934;-74
2022/09/24 08:31:06;;;;;;;;;;;;;;;;;;5114963;28;19924;-74
2022/09/24 08:33:32;;;;;;;;;;;;;;;;;;5115734;28;20024;-74
2022/09/24 08:35:59;;;;;;;;;;;;;;;;;;5115298;28;19924;-74
2022/09/24 08:38:27;;;;;;;;;;;;;;;;;;5115342;28;19934;-75
2022/09/24 08:40:57;;;;;;;;;;;;;;;;;;5114987;28;19931;-75
2022/09/24 08:43:30;;;;;;;;;;;;;;;;;;5115344;28;19930;-75
2022/09/24 08:48:44;;;;;;;;;;;;;;;;;;5110311;28;19954;-75
2022/09/24 08:51:12;;;;;;;;;;;;;;;;;;5113665;28;19923;-74
2022/09/24 08:53:45;;;;;;;;;;;;;;;;;;5113630;28;19924;-74
2022/09/24 08:56:12;;;;;;;;;;;;;;;;;;5114632;28;20010;-74
2022/09/24 08:58:40;;;;;;;;;;;;;;;;;;5115264;28;19924;-74
2022/09/24 09:01:12;;;;;;;;;;;;;;;;;;5113814;28;20014;-74
2022/09/24 09:03:41;;;;;;;;;;;;;;;;;;5114051;28;19930;-74
2022/09/24 09:06:12;;;;;;;;;;;;;;;;;;5114170;28;19932;-75
2022/09/24 09:08:43;;;;;;;;;;;;;;;;;;5114530;28;19930;-74
2022/09/24 09:11:12;;;;;;;;;;;;;;;;;;5114453;28;19924;-75
2022/09/24 09:13:41;;;;;;;;;;;;;;;;;;5113229;28;20011;-73
2022/09/24 09:16:11;;;;;;;;;;;;;;;;;;5114130;28;19924;-74
2022/09/24 09:18:40;;;;;;;;;;;;;;;;;;5114727;28;20319;-74
2022/09/24 09:21:13;;;;;;;;;;;;;;;;;;5116689;28;19970;-77
2022/09/24 09:23:45;;;;;;;;;;;;;;;;;;5117421;28;19928;-78
2022/09/24 09:26:13;;;;;;;;;;;;;;;;;;5119116;28;19924;-77
2022/09/24 09:28:40;;;;;;;;;;;;;;;;;;5118231;28;19924;-81
2022/09/24 09:31:11;;;;;;;;;;;;;;;;;;5116596;28;19924;-77
2022/09/24 09:33:42;;;;;;;;;;;;;;;;;;5116802;28;19931;-77
2022/09/24 09:36:17;;;;;;;;;;;;;;;;;;5122563;28;20426;-77
2022/09/24 09:38:47;;;;;;;;;;;;;;;;;;5119455;28;19970;-80
2022/09/24 09:41:18;;;;;;;;;;;;;;;;;;5118260;28;20412;-78
2022/09/24 09:43:45;;;;;;;;;;;;;;;;;;5119901;28;19928;-82
2022/09/24 09:46:14;;;;;;;;;;;;;;;;;;5115685;28;20026;-77
2022/09/24 09:48:44;;;;;;;;;;;;;;;;;;5113732;28;19923;-74
2022/09/24 09:51:16;;;;;;;;;;;;;;;;;;5115120;28;19928;-75
2022/09/24 09:53:53;;;;;;;;;;;;;;;;;;5115838;28;19942;-75
2022/09/24 09:56:23;;;;;;;;;;;;;;;;;;5116179;28;19959;-76
2022/09/24 09:58:54;;;;;;;;;;;;;;;;;;5114713;28;19954;-75
2022/09/24 10:01:30;;;;;;;;;;;;;;;;;;5114010;28;19923;-76
2022/09/24 10:04:02;;;;;;;;;;;;;;;;;;5114382;28;20399;-76
2022/09/24 10:06:30;;;;;;;;;;;;;;;;;;5113068;28;19981;-75
2022/09/24 10:09:06;;;;;;;;;;;;;;;;;;5114271;28;19923;-76
2022/09/24 10:11:34;;;;;;;;;;;;;;;;;;5114520;28;19924;-76
2022/09/24 10:14:04;;;;;;;;;;;;;;;;;;5113818;28;20333;-76
2022/09/24 10:16:30;;;;;;;;;;;;;;;;;;5115017;28;19924;-76
2022/09/24 10:18:57;;;;;;;;;;;;;;;;;;5114862;28;19963;-76
2022/09/24 10:21:33;;;;;;;;;;;;;;;;;;5113904;28;19928;-76
2022/09/24 10:24:00;;;;;;;;;;;;;;;;;;5114522;28;19924;-75
2022/09/24 10:26:35;;;;;;;;;;;;;;;;;;5115617;28;20002;-76
2022/09/24 10:31:46;;;;;;;;;;;;;;;;;;5115712;28;19953;-74
2022/09/24 10:34:21;;;;;;;;;;;;;;;;;;5114999;28;19969;-75
2022/09/24 10:36:51;;;;;;;;;;;;;;;;;;5112774;28;19924;-75
2022/09/24 10:39:18;;;;;;;;;;;;;;;;;;5116733;28;20403;-75
2022/09/24 10:41:47;;;;;;;;;;;;;;;;;;5134841;28;19938;-76
2022/09/24 10:44:15;;;;;;;;;;;;;;;;;;5135906;28;19967;-75
2022/09/24 10:46:54;;;;;;;;;;;;;;;;;;5136374;28;19934;-74
2022/09/24 10:49:28;;;;;;;;;;;;;;;;;;5135437;28;19930;-75
2022/09/24 10:52:07;;;;;;;;;;;;;;;;;;5135094;28;19966;-75
2022/09/24 10:54:39;;;;;;;;;;;;;;;;;;5134964;28;19912;-75
2022/09/24 10:57:12;;;;;;;;;;;;;;;;;;5135179;28;19963;-75
2022/09/24 10:59:44;;;;;;;;;;;;;;;;;;5134595;28;19911;-75
2022/09/24 11:02:21;;;;;;;;;;;;;;;;;;5132048;28;19952;-77
2022/09/24 11:04:50;;;;;;;;;;;;;;;;;;5133674;28;20542;-75
2022/09/24 11:07:31;;;;;;;;;;;;;;;;;;5134693;28;19912;-74
2022/09/24 11:10:00;;;;;;;;;;;;;;;;;;5117217;28;19968;-74
2022/09/24 11:12:32;;;;;;;;;;;;;;;;;;5131512;28;19923;-73
2022/09/24 11:15:06;;;;;;;;;;;;;;;;;;5131552;28;19969;-75
2022/09/24 11:17:33;;;;;;;;;;;;;;;;;;5119482;22;19931;-75
2022/09/24 11:20:06;;;;;;;;;;;;;;;;;;5092289;28;19931;-75
2022/09/24 11:22:41;;;;;;;;;;;;;;;;;;5095299;28;20015;-76
2022/09/24 11:25:20;;;;;;;;;;;;;;;;;;5095223;28;20402;-75
2022/09/24 11:27:55;;;;;;;;;;;;;;;;;;5096832;28;19924;-75
2022/09/24 11:30:23;;;;;;;;;;;;;;;;;;5096509;28;19934;-75
2022/09/24 11:32:58;;;;;;;;;;;;;;;;;;5096334;28;20309;-75
2022/09/24 11:38:16;;;;;;;;;;;;;;;;;;5075106;28;20339;-76
2022/09/24 11:40:52;;;;;;;;;;;;;;;;;;5076115;28;20475;-75
2022/09/24 11:43:35;;;;;;;;;;;;;;;;;;5087416;28;20267;-76
2022/09/24 11:46:10;;;;;;;;;;;;;;;;;;5096722;28;20427;-76
2022/09/24 11:48:55;;;;;;;;;;;;;;;;;;5096333;28;19930;-75
2022/09/24 11:51:25;;;;;;;;;;;;;;;;;;5097526;28;19950;-78
2022/09/24 11:53:54;;;;;;;;;;;;;;;;;;5083859;28;19993;-77
2022/09/24 11:56:22;;;;;;;;;;;;;;;;;;5095253;28;19930;-77
2022/09/24 11:58:54;;;;;;;;;;;;;;;;;;5095778;28;19925;-76
2022/09/24 12:01:23;;;;;;;;;;;;;;;;;;5095509;28;19950;-76
2022/09/24 12:03:53;;;;;;;;;;;;;;;;;;5095810;28;19931;-75
2022/09/24 12:06:21;;;;;;;;;;;;;;;;;;5095529;28;20007;-76
2022/09/24 12:08:51;;;;;;;;;;;;;;;;;;5095374;28;20310;-76
2022/09/24 12:11:19;;;;;;;;;;;;;;;;;;5095602;28;20379;-77
2022/09/24 12:13:47;;;;;;;;;;;;;;;;;;5096362;28;20019;-75
2022/09/24 12:16:16;;;;;;;;;;;;;;;;;;5095560;28;19924;-75
2022/09/24 12:18:46;;;;;;;;;;;;;;;;;;5095474;28;19924;-75
2022/09/24 12:21:17;;;;;;;;;;;;;;;;;;5096202;28;19950;-76
2022/09/24 12:23:46;;;;;;;;;;;;;;;;;;5095531;28;20315;-76
2022/09/24 12:26:15;;;;;;;;;;;;;;;;;;5095965;28;19924;-75
2022/09/24 12:34:18;;;;;;;;;;;;;;;;;;5095583;28;19931;-76
2022/09/24 12:36:53;;;;;;;;;;;;;;;;;;5094202;28;20438;-75
2022/09/24 12:39:22;;;;;;;;;;;;;;;;;;5095122;28;19928;-75
2022/09/24 12:41:53;;;;;;;;;;;;;;;;;;5095565;28;19963;-75
2022/09/24 12:44:22;;;;;;;;;;;;;;;;;;5095236;28;19924;-75
2022/09/24 12:46:51;;;;;;;;;;;;;;;;;;5095080;28;20440;-76
2022/09/24 12:49:22;;;;;;;;;;;;;;;;;;5094800;28;19924;-76
2022/09/24 12:51:49;;;;;;;;;;;;;;;;;;5095161;28;19930;-74
2022/09/24 12:54:23;;;;;;;;;;;;;;;;;;5095133;28;20019;-75
2022/09/24 12:56:50;;;;;;;;;;;;;;;;;;5095079;28;19924;-75
2022/09/24 12:59:26;;;;;;;;;;;;;;;;;;5095370;28;19931;-75
2022/09/24 13:01:54;;;;;;;;;;;;;;;;;;5095239;28;20397;-76
2022/09/24 13:04:26;;;;;;;;;;;;;;;;;;5096265;28;19950;-75
2022/09/24 13:06:52;;;;;;;;;;;;;;;;;;5095498;28;20005;-75
2022/09/24 13:09:40;;;;;;;;;;;;;;;;;;5095247;28;19974;-76
2022/09/24 13:12:19;;;;;;;;;;;;;;;;;;5091784;28;19924;-76
2022/09/24 13:14:49;;;;;;;;;;;;;;;;;;5098550;28;19928;-74
2022/09/24 13:17:17;;;;;;;;;;;;;;;;;;5100557;28;19924;-76
2022/09/24 13:19:44;;;;;;;;;;;;;;;;;;5112841;28;19946;-74
2022/09/24 13:22:22;;;;;;;;;;;;;;;;;;5110742;28;19986;-76
2022/09/24 13:24:50;;;;;;;;;;;;;;;;;;5108738;28;19924;-76
2022/09/24 13:27:20;;;;;;;;;;;;;;;;;;5110414;28;20013;-76
2022/09/24 13:29:48;;;;;;;;;;;;;;;;;;5110144;28;19974;-75
2022/09/24 13:32:18;;;;;;;;;;;;;;;;;;5109938;28;19931;-75
2022/09/24 13:34:49;;;;;;;;;;;;;;;;;;5101635;28;19924;-74
2022/09/24 13:37:20;;;;;;;;;;;;;;;;;;5106731;28;19931;-74
2022/09/24 13:39:49;;;;;;;;;;;;;;;;;;5102243;28;19924;-75
2022/09/24 13:42:17;;;;;;;;;;;;;;;;;;5101728;28;19931;-74
2022/09/24 13:44:47;;;;;;;;;;;;;;;;;;5100842;28;19930;-75
2022/09/24 13:47:15;;;;;;;;;;;;;;;;;;5097856;28;19932;-76
2022/09/24 13:49:42;;;;;;;;;;;;;;;;;;5099240;28;19931;-75
2022/09/24 13:52:13;;;;;;;;;;;;;;;;;;5097051;28;20394;-74
2022/09/24 13:54:46;;;;;;;;;;;;;;;;;;5096311;28;19928;-75
2022/09/24 13:57:19;;;;;;;;;;;;;;;;;;5111647;28;21890;-75
2022/09/24 13:59:46;;;;;;;;;;;;;;;;;;5095769;28;19932;-75
2022/09/24 14:02:23;;;;;;;;;;;;;;;;;;5094134;28;19928;-74
2022/09/24 14:04:52;;;;;;;;;;;;;;;;;;5094963;28;19925;-75
2022/09/24 14:07:21;;;;;;;;;;;;;;;;;;5094503;28;19924;-74
2022/09/24 14:09:50;;;;;;;;;;;;;;;;;;5093527;28;19931;-75
2022/09/24 14:12:20;;;;;;;;;;;;;;;;;;5093576;28;19924;-75
2022/09/24 14:14:52;;;;;;;;;;;;;;;;;;5093708;28;19950;-75
2022/09/24 14:17:18;;;;;;;;;;;;;;;;;;5087890;28;19931;-75
2022/09/24 14:19:45;;;;;;;;;;;;;;;;;;5093511;28;19925;-74
2022/09/24 14:22:14;;;;;;;;;;;;;;;;;;5093661;28;20006;-75
2022/09/24 14:24:44;;;;;;;;;;;;;;;;;;5093309;28;20039;-75
2022/09/24 14:27:14;;;;;;;;;;;;;;;;;;5093379;28;20041;-75
2022/09/24 14:29:45;;;;;;;;;;;;;;;;;;5094024;28;19924;-81
2022/09/24 14:32:18;;;;;;;;;;;;;;;;;;5095482;28;19924;-76
2022/09/24 14:34:45;;;;;;;;;;;;;;;;;;5095611;28;19930;-82
2022/09/24 14:37:17;;;;;;;;;;;;;;;;;;5097606;28;20383;-78
2022/09/24 14:39:46;;;;;;;;;;;;;;;;;;5095131;28;20060;-76
2022/09/24 14:42:17;;;;;;;;;;;;;;;;;;5092769;28;19950;-74
2022/09/24 14:44:45;;;;;;;;;;;;;;;;;;5093239;28;20409;-76
2022/09/24 14:47:23;;;;;;;;;;;;;;;;;;5092734;28;19930;-75
2022/09/24 14:49:50;;;;;;;;;;;;;;;;;;5092747;28;19931;-75
2022/09/24 14:52:29;;;;;;;;;;;;;;;;;;5090238;28;19928;-75
2022/09/24 14:55:12;;;;;;;;;;;;;;;;;;5084643;28;19924;-75
2022/09/24 14:57:38;;;;;;;;;;;;;;;;;;5080663;28;20566;-75
2022/09/24 15:00:18;;;;;;;;;;;;;;;;;;5089821;28;19967;-74
2022/09/24 15:02:48;;;;;;;;;;;;;;;;;;5093095;28;19930;-75
2022/09/24 15:05:15;;;;;;;;;;;;;;;;;;5093022;28;20007;-74
2022/09/24 15:07:42;;;;;;;;;;;;;;;;;;5093063;28;19930;-75
2022/09/24 15:10:20;;;;;;;;;;;;;;;;;;5092244;28;19936;-75
2022/09/24 15:12:46;;;;;;;;;;;;;;;;;;5109371;28;19931;-74
2022/09/24 15:15:26;;;;;;;;;;;;;;;;;;5113123;28;19931;-75
2022/09/24 15:17:52;;;;;;;;;;;;;;;;;;5108516;28;19935;-73
2022/09/24 15:20:19;;;;;;;;;;;;;;;;;;5106378;28;20233;-74
2022/09/24 15:22:46;;;;;;;;;;;;;;;;;;5104500;28;19984;-73
2022/09/24 15:25:13;;;;;;;;;;;;;;;;;;5094150;28;19934;-75
2022/09/24 15:27:42;;;;;;;;;;;;;;;;;;5093695;28;19924;-74
2022/09/24 15:30:11;;;;;;;;;;;;;;;;;;5092458;28;19930;-74
2022/09/24 15:32:37;;;;;;;;;;;;;;;;;;5092745;28;20465;-76
2022/09/24 15:35:07;;;;;;;;;;;;;;;;;;5092243;28;19928;-76
2022/09/24 15:37:36;;;;;;;;;;;;;;;;;;5092723;28;20145;-77
2022/09/24 15:40:05;;;;;;;;;;;;;;;;;;5092234;28;19939;-74
2022/09/24 15:42:32;;;;;;;;;;;;;;;;;;5092361;28;20015;-75
2022/09/24 15:44:59;;;;;;;;;;;;;;;;;;5093204;28;20302;-76
2022/09/24 15:47:26;;;;;;;;;;;;;;;;;;5092753;28;19931;-77
2022/09/24 15:49:52;;;;;;;;;;;;;;;;;;5092083;28;19974;-75
2022/09/24 15:52:23;;;;;;;;;;;;;;;;;;5091918;28;19930;-76
2022/09/24 15:54:50;;;;;;;;;;;;;;;;;;5094269;28;19928;-82
2022/09/24 15:57:16;;;;;;;;;;;;;;;;;;5093312;28;19925;-76
2022/09/24 15:59:43;;;;;;;;;;;;;;;;;;5092765;28;19977;-75
2022/09/24 16:02:16;;;;;;;;;;;;;;;;;;5091238;28;19924;-76
2022/09/24 16:04:42;;;;;;;;;;;;;;;;;;5092772;28;20022;-79
2022/09/24 16:07:09;;;;;;;;;;;;;;;;;;5093084;28;19925;-77
2022/09/24 16:09:35;;;;;;;;;;;;;;;;;;5092195;28;19931;-75
2022/09/24 16:12:02;;;;;;;;;;;;;;;;;;5096193;28;20113;-77
2022/09/24 16:14:28;;;;;;;;;;;;;;;;;;5096572;28;19924;-75
2022/09/24 16:16:55;;;;;;;;;;;;;;;;;;5095833;28;20023;-77
2022/09/24 16:19:23;;;;;;;;;;;;;;;;;;5094830;28;19928;-76
2022/09/24 16:21:50;;;;;;;;;;;;;;;;;;5095839;28;19928;-77
2022/09/24 16:24:17;;;;;;;;;;;;;;;;;;5089832;28;20383;-77
2022/09/24 16:26:43;;;;;;;;;;;;;;;;;;5092916;28;19924;-77
2022/09/24 16:29:10;;;;;;;;;;;;;;;;;;5095629;28;20391;-76
2022/09/24 16:31:37;;;;;;;;;;;;;;;;;;5095006;28;19925;-76
2022/09/24 16:34:03;;;;;;;;;;;;;;;;;;5095102;28;19928;-77
2022/09/24 16:36:31;;;;;;;;;;;;;;;;;;5096156;28;19924;-77
2022/09/24 16:38:59;;;;;;;;;;;;;;;;;;5091066;28;19924;-76
2022/09/24 16:41:25;;;;;;;;;;;;;;;;;;5096012;28;20401;-77
2022/09/24 16:43:54;;;;;;;;;;;;;;;;;;5096089;28;19924;-77
2022/09/24 16:46:21;;;;;;;;;;;;;;;;;;5095432;28;20015;-78
2022/09/24 16:48:48;;;;;;;;;;;;;;;;;;5095179;28;20306;-77
2022/09/24 16:51:17;;;;;;;;;;;;;;;;;;5096295;28;19931;-76
2022/09/24 16:53:46;;;;;;;;;;;;;;;;;;5095125;28;19930;-76
2022/09/24 16:56:13;;;;;;;;;;;;;;;;;;5094678;28;19924;-77
2022/09/24 16:58:40;;;;;;;;;;;;;;;;;;5095334;28;20019;-77
2022/09/24 17:01:07;;;;;;;;;;;;;;;;;;5094860;28;19930;-77
2022/09/24 17:03:33;;;;;;;;;;;;;;;;;;5095013;28;19931;-77
2022/09/24 17:06:00;;;;;;;;;;;;;;;;;;5095888;28;19946;-76
2022/09/24 17:10:11;;;;;;;;;;;;;;;;;;5094153;28;19924;-76
2022/09/24 17:11:14;;;;;;;;;;;;;;;;;;5094505;28;20283;-78
2022/09/24 17:13:40;;;;;;;;;;;;;;;;;;5095049;28;19962;-76
2022/09/24 17:16:07;;;;;;;;;;;;;;;;;;5095442;28;20035;-76
2022/09/24 17:18:33;;;;;;;;;;;;;;;;;;5074099;22;19925;-80